createdAt,value
2017-05-25T00:00:24.850Z,6.86
2017-05-25T00:02:53.126Z,6.24
2017-05-25T00:05:21.442Z,5.94
2017-05-25T00:07:49.749Z,5.48
2017-05-25T00:10:18.026Z,6.12
2017-05-25T00:12:46.339Z,7.42
2017-05-25T00:15:14.607Z,8.44
2017-05-25T00:17:42.884Z,7.92
2017-05-25T00:20:11.195Z,7.94
2017-05-25T00:22:39.499Z,8.24
2017-05-25T00:25:07.775Z,9.02
2017-05-25T00:27:36.095Z,8.80
2017-05-25T00:30:04.378Z,8.60
2017-05-25T00:32:32.655Z,7.84
2017-05-25T00:35:00.979Z,8.96
2017-05-25T00:37:29.574Z,7.92
2017-05-25T00:39:57.863Z,8.82
2017-05-25T00:42:26.508Z,7.86
2017-05-25T00:44:54.783Z,8.84
2017-05-25T00:47:23.059Z,7.70
2017-05-25T00:49:51.391Z,9.36
2017-05-25T00:52:19.675Z,10.28
2017-05-25T00:54:47.946Z,8.74
2017-05-25T00:57:16.283Z,8.78
2017-05-25T00:59:44.551Z,8.70
2017-05-25T01:02:12.827Z,10.26
2017-05-25T01:04:41.153Z,8.90
2017-05-25T01:07:09.482Z,9.78
2017-05-25T01:09:37.759Z,8.70
2017-05-25T01:12:06.083Z,8.28
2017-05-25T01:14:34.360Z,9.00
2017-05-25T01:17:02.635Z,8.94
2017-05-25T01:19:30.951Z,9.42
2017-05-25T01:21:59.231Z,9.04
2017-05-25T01:24:27.551Z,11.06
2017-05-25T01:26:55.831Z,10.88
2017-05-25T01:29:24.159Z,11.10
2017-05-25T01:31:52.439Z,9.74
2017-05-25T01:34:20.731Z,10.40
2017-05-25T01:36:49.059Z,9.48
2017-05-25T01:39:17.336Z,9.32
2017-05-25T01:41:45.611Z,9.74
2017-05-25T01:44:13.955Z,9.74
2017-05-25T01:46:42.240Z,10.44
2017-05-25T01:49:10.515Z,9.86
2017-05-25T01:51:38.826Z,9.86
2017-05-25T01:54:07.103Z,10.34
2017-05-25T01:56:35.435Z,8.34
2017-05-25T01:59:03.711Z,9.06
2017-05-25T02:01:32.001Z,8.82
2017-05-25T02:04:00.332Z,9.70
2017-05-25T02:06:28.610Z,10.42
2017-05-25T02:08:56.887Z,10.50
2017-05-25T02:11:25.221Z,11.14
2017-05-25T02:13:53.499Z,9.28
2017-05-25T02:16:21.770Z,9.10
2017-05-25T02:18:50.110Z,8.88
2017-05-25T02:21:18.391Z,11.44
2017-05-25T02:23:46.671Z,10.82
2017-05-25T02:26:14.987Z,10.70
2017-05-25T02:28:43.308Z,11.62
2017-05-25T02:31:11.599Z,9.94
2017-05-25T02:33:39.925Z,10.38
2017-05-25T02:36:08.207Z,10.36
2017-05-25T02:38:36.496Z,10.20
2017-05-25T02:41:04.823Z,9.66
2017-05-25T02:43:33.122Z,9.54
2017-05-25T02:46:01.407Z,10.26
2017-05-25T02:48:29.737Z,11.06
2017-05-25T02:50:58.018Z,9.64
2017-05-25T02:53:26.299Z,10.38
2017-05-25T02:55:54.619Z,9.30
2017-05-25T02:58:22.898Z,10.18
2017-05-25T03:00:51.175Z,11.88
2017-05-25T03:03:19.501Z,10.46
2017-05-25T03:05:47.782Z,10.80
2017-05-25T03:08:16.059Z,10.12
2017-05-25T03:10:44.389Z,12.74
2017-05-25T03:13:12.671Z,12.40
2017-05-25T03:15:40.947Z,13.20
2017-05-25T03:18:09.279Z,11.76
2017-05-25T03:20:37.573Z,11.42
2017-05-25T03:23:05.856Z,11.06
2017-05-25T03:25:34.182Z,10.98
2017-05-25T03:28:02.459Z,12.80
2017-05-25T03:30:30.734Z,11.40
2017-05-25T03:32:59.058Z,12.10
2017-05-25T03:35:27.344Z,13.48
2017-05-25T03:37:55.623Z,12.40
2017-05-25T03:40:23.942Z,11.84
2017-05-25T03:42:52.223Z,13.06
2017-05-25T03:45:20.539Z,11.74
2017-05-25T03:47:48.827Z,11.94
2017-05-25T03:50:17.110Z,11.12
2017-05-25T03:52:45.415Z,14.26
2017-05-25T03:55:13.704Z,13.70
2017-05-25T03:57:42.031Z,13.44
2017-05-25T04:00:10.311Z,14.00
2017-05-25T04:02:38.592Z,14.78
2017-05-25T04:05:06.939Z,14.04
2017-05-25T04:07:35.215Z,13.44
2017-05-25T04:10:03.492Z,14.70
2017-05-25T04:12:31.803Z,16.84
2017-05-25T04:15:00.083Z,20.30
2017-05-25T04:17:28.438Z,22.90
2017-05-25T04:19:56.731Z,20.82
2017-05-25T04:22:25.007Z,21.84
2017-05-25T04:24:53.331Z,23.56
2017-05-25T04:27:21.610Z,23.34
2017-05-25T04:29:49.891Z,27.58
2017-05-25T04:32:18.202Z,23.66
2017-05-25T04:34:46.480Z,24.16
2017-05-25T04:37:14.815Z,26.30
2017-05-25T04:39:43.095Z,26.98
2017-05-25T04:42:11.372Z,28.70
2017-05-25T04:44:39.687Z,28.08
2017-05-25T04:47:08.007Z,26.48
2017-05-25T04:49:36.278Z,27.20
2017-05-25T04:52:04.563Z,25.44
2017-05-25T04:54:32.875Z,24.68
2017-05-25T04:57:01.154Z,24.28
2017-05-25T04:59:29.502Z,25.52
2017-05-25T05:01:57.784Z,26.32
2017-05-25T05:04:26.060Z,27.74
2017-05-25T05:06:54.383Z,23.94
2017-05-25T05:09:22.659Z,26.88
2017-05-25T05:11:50.935Z,26.38
2017-05-25T05:14:19.260Z,24.96
2017-05-25T05:16:47.535Z,24.34
2017-05-25T05:19:16.402Z,27.00
2017-05-25T05:21:44.754Z,27.82
2017-05-25T05:24:13.026Z,28.32
2017-05-25T05:26:41.303Z,24.92
2017-05-25T05:29:09.628Z,25.12
2017-05-25T05:31:37.906Z,24.32
2017-05-25T05:34:06.227Z,23.08
2017-05-25T05:36:33.743Z,24.38
2017-05-25T05:39:02.024Z,23.48
2017-05-25T05:41:31.447Z,25.58
2017-05-25T05:43:59.720Z,22.98
2017-05-25T05:46:28.012Z,22.88
2017-05-25T05:48:56.339Z,25.16
2017-05-25T05:51:24.618Z,24.86
2017-05-25T05:53:52.898Z,22.24
2017-05-25T05:56:21.216Z,21.76
2017-05-25T05:58:49.547Z,24.86
2017-05-25T06:01:17.858Z,22.74
2017-05-25T06:03:46.136Z,22.20
2017-05-25T06:06:14.459Z,23.96
2017-05-25T06:08:42.792Z,23.24
2017-05-25T06:11:11.078Z,22.26
2017-05-25T06:13:39.360Z,22.84
2017-05-25T06:16:07.671Z,22.46
2017-05-25T06:18:35.951Z,24.16
2017-05-25T06:21:04.270Z,20.34
2017-05-25T06:23:32.595Z,22.08
2017-05-25T06:26:00.874Z,21.78
2017-05-25T06:28:29.155Z,21.10
2017-05-25T06:30:57.483Z,21.96
2017-05-25T06:33:25.762Z,22.88
2017-05-25T06:35:54.042Z,22.12
2017-05-25T06:38:22.364Z,25.08
2017-05-25T06:40:50.642Z,23.98
2017-05-25T06:43:18.925Z,24.86
2017-05-25T06:45:47.274Z,26.26
2017-05-25T06:48:15.555Z,24.86
2017-05-25T06:50:43.832Z,23.06
2017-05-25T06:53:12.164Z,23.34
2017-05-25T06:55:40.455Z,22.88
2017-05-25T06:58:08.735Z,21.78
2017-05-25T07:00:37.106Z,23.74
2017-05-25T07:03:05.386Z,21.80
2017-05-25T07:05:33.663Z,22.02
2017-05-25T07:08:01.999Z,24.40
2017-05-25T07:10:30.276Z,21.22
2017-05-25T07:12:58.555Z,21.56
2017-05-25T07:15:26.886Z,22.40
2017-05-25T07:17:55.167Z,21.50
2017-05-25T07:20:23.454Z,20.20
2017-05-25T07:22:51.816Z,21.84
2017-05-25T07:25:20.097Z,20.24
2017-05-25T07:27:48.378Z,22.92
2017-05-25T07:30:16.703Z,24.46
2017-05-25T07:32:44.979Z,25.02
2017-05-25T07:35:13.259Z,26.24
2017-05-25T07:37:41.575Z,26.86
2017-05-25T07:40:09.854Z,28.34
2017-05-25T07:42:38.136Z,25.26
2017-05-25T07:45:06.476Z,24.60
2017-05-25T07:47:34.774Z,23.60
2017-05-25T07:50:03.090Z,21.62
2017-05-25T07:52:31.414Z,24.60
2017-05-25T07:54:59.736Z,22.62
2017-05-25T07:57:28.020Z,22.94
2017-05-25T07:59:56.312Z,20.28
2017-05-25T08:02:24.993Z,20.18
2017-05-25T08:04:53.276Z,21.04
2017-05-25T08:07:21.615Z,20.56
2017-05-25T08:09:50.044Z,21.94
2017-05-25T08:12:18.339Z,19.50
2017-05-25T08:14:46.655Z,20.00
2017-05-25T08:17:14.947Z,18.06
2017-05-25T08:19:43.269Z,18.36
2017-05-25T08:22:11.571Z,17.58
2017-05-25T08:24:39.862Z,19.72
2017-05-25T08:27:08.183Z,17.76
2017-05-25T08:29:36.523Z,18.06
2017-05-25T08:32:04.824Z,18.04
2017-05-25T08:34:33.103Z,16.56
2017-05-25T08:37:01.418Z,16.54
2017-05-25T08:39:29.699Z,17.32
2017-05-25T08:41:58.016Z,16.46
2017-05-25T08:44:26.336Z,15.78
2017-05-25T08:46:54.626Z,17.00
2017-05-25T08:49:22.953Z,16.70
2017-05-25T08:51:51.230Z,15.92
2017-05-25T08:54:19.506Z,16.04
2017-05-25T08:56:47.839Z,14.14
2017-05-25T08:59:16.138Z,14.82
2017-05-25T09:01:44.419Z,16.52
2017-05-25T09:04:12.752Z,16.50
2017-05-25T09:06:41.031Z,13.36
2017-05-25T09:09:09.319Z,13.40
2017-05-25T09:11:37.651Z,13.44
2017-05-25T09:14:05.935Z,12.04
2017-05-25T09:16:34.218Z,13.04
2017-05-25T09:19:02.537Z,12.08
2017-05-25T09:21:30.812Z,12.36
2017-05-25T09:23:59.139Z,15.14
2017-05-25T09:26:27.415Z,13.12
2017-05-25T09:28:55.705Z,14.80
2017-05-25T09:31:24.015Z,12.74
2017-05-25T09:33:52.298Z,14.76
2017-05-25T09:36:20.627Z,14.58
2017-05-25T09:38:48.915Z,14.90
2017-05-25T09:41:17.203Z,13.28
2017-05-25T09:43:45.519Z,14.30
2017-05-25T09:46:13.796Z,16.54
2017-05-25T09:48:42.153Z,15.38
2017-05-25T09:51:10.447Z,16.62
2017-05-25T09:53:38.738Z,17.32
2017-05-25T09:56:07.079Z,17.78
2017-05-25T09:58:35.368Z,17.70
2017-05-25T10:01:03.683Z,16.44
2017-05-25T10:03:32.004Z,17.28
2017-05-25T10:06:00.318Z,14.00
2017-05-25T10:08:28.607Z,15.74
2017-05-25T10:10:56.938Z,15.32
2017-05-25T10:13:25.221Z,16.68
2017-05-25T10:15:53.503Z,17.72
2017-05-25T10:18:22.100Z,16.48
2017-05-25T10:20:50.387Z,15.74
2017-05-25T10:23:18.665Z,14.40
2017-05-25T10:25:46.975Z,14.18
2017-05-25T10:28:15.273Z,13.58
2017-05-25T10:30:43.631Z,11.48
2017-05-25T10:33:11.914Z,11.16
2017-05-25T10:35:40.200Z,10.42
2017-05-25T10:38:08.516Z,11.50
2017-05-25T10:40:36.839Z,11.44
2017-05-25T10:43:05.134Z,10.72
2017-05-25T10:45:33.415Z,10.08
2017-05-25T10:48:01.727Z,8.90
2017-05-25T10:50:30.046Z,9.52
2017-05-25T10:52:58.340Z,10.92
2017-05-25T10:55:26.626Z,10.22
2017-05-25T10:57:54.972Z,11.12
2017-05-25T11:00:23.254Z,12.38
2017-05-25T11:02:51.535Z,10.48
2017-05-25T11:05:19.859Z,9.72
2017-05-25T11:07:48.179Z,10.56
2017-05-25T11:10:16.474Z,11.40
2017-05-25T11:12:44.791Z,9.66
2017-05-25T11:15:13.113Z,9.86
2017-05-25T11:17:41.396Z,11.32
2017-05-25T11:20:09.690Z,10.64
2017-05-25T11:22:38.054Z,9.42
2017-05-25T11:25:06.335Z,12.06
2017-05-25T11:27:34.624Z,11.18
2017-05-25T11:30:02.951Z,11.00
2017-05-25T11:32:31.238Z,9.08
2017-05-25T11:34:59.559Z,11.06
2017-05-25T11:37:27.867Z,9.96
2017-05-25T11:39:56.196Z,10.24
2017-05-25T11:42:24.478Z,10.52
2017-05-25T11:44:52.762Z,10.72
2017-05-25T11:47:21.082Z,10.92
2017-05-25T11:49:49.369Z,9.70
2017-05-25T11:52:17.695Z,8.72
2017-05-25T11:54:45.982Z,9.16
2017-05-25T11:57:14.268Z,9.44
2017-05-25T11:59:42.635Z,11.60
2017-05-25T12:02:10.927Z,11.36
2017-05-25T12:04:39.254Z,9.44
2017-05-25T12:07:07.541Z,10.28
2017-05-25T12:09:35.911Z,9.42
2017-05-25T12:12:04.197Z,8.70
2017-05-25T12:14:32.471Z,8.70
2017-05-25T12:17:00.800Z,10.28
2017-05-25T12:19:29.071Z,7.96
2017-05-25T12:21:57.343Z,7.84
2017-05-25T12:24:25.708Z,8.80
2017-05-25T12:26:53.980Z,8.78
2017-05-25T12:29:22.307Z,8.26
2017-05-25T12:31:50.621Z,6.88
2017-05-25T12:34:18.909Z,7.80
2017-05-25T12:36:47.230Z,7.14
2017-05-25T12:39:15.503Z,8.50
2017-05-25T12:41:43.791Z,6.76
2017-05-25T12:44:12.138Z,9.26
2017-05-25T12:46:40.418Z,8.42
2017-05-25T12:49:08.711Z,7.30
2017-05-25T12:51:37.035Z,6.72
2017-05-25T12:54:05.306Z,7.08
2017-05-25T12:56:33.608Z,6.00
2017-05-25T12:59:01.930Z,6.16
2017-05-25T13:01:30.202Z,7.40
2017-05-25T13:03:58.475Z,7.12
2017-05-25T13:06:26.790Z,7.56
2017-05-25T13:08:55.067Z,8.04
2017-05-25T13:11:23.342Z,7.78
2017-05-25T13:13:51.674Z,6.76
2017-05-25T13:16:19.988Z,6.62
2017-05-25T13:18:48.263Z,7.44
2017-05-25T13:21:16.531Z,8.02
2017-05-25T13:24:39.475Z,7.48
2017-05-25T13:27:08.871Z,7.46
2017-05-25T13:29:38.002Z,8.32
2017-05-25T13:32:07.141Z,8.48
2017-05-25T13:34:36.264Z,8.30
2017-05-25T13:37:05.359Z,8.66
2017-05-25T13:39:34.484Z,9.26
2017-05-25T13:42:03.611Z,7.44
2017-05-25T13:44:32.760Z,9.10
2017-05-25T13:47:01.963Z,7.40
2017-05-25T13:49:31.319Z,7.92
2017-05-25T13:52:00.418Z,7.60
2017-05-25T13:54:29.547Z,7.88
2017-05-25T13:56:58.738Z,7.20
2017-05-25T13:59:27.887Z,9.42
2017-05-25T14:01:57.059Z,7.20
2017-05-25T14:04:26.156Z,6.10
2017-05-25T14:06:55.306Z,6.82
2017-05-25T14:09:24.398Z,7.04
2017-05-25T14:11:53.553Z,7.04
2017-05-25T14:14:22.726Z,10.54
2017-05-25T14:16:51.823Z,8.18
2017-05-25T14:19:20.963Z,6.88
2017-05-25T14:21:50.069Z,6.70
2017-05-25T14:24:19.208Z,7.00
2017-05-25T14:26:48.297Z,6.00
2017-05-25T14:29:17.458Z,7.04
2017-05-25T14:31:46.566Z,6.08
2017-05-25T14:34:15.695Z,7.28
2017-05-25T14:36:44.827Z,8.04
2017-05-25T14:39:13.963Z,9.08
2017-05-25T14:41:43.111Z,6.94
2017-05-25T14:44:12.209Z,8.14
2017-05-25T14:46:41.388Z,8.88
2017-05-25T14:49:10.480Z,8.18
2017-05-25T14:51:39.619Z,9.64
2017-05-25T14:54:08.754Z,7.80
2017-05-25T14:56:37.944Z,7.72
2017-05-25T14:59:07.046Z,11.64
2017-05-25T15:01:36.203Z,9.68
2017-05-25T15:04:05.291Z,9.14
2017-05-25T15:06:34.410Z,7.18
2017-05-25T15:09:03.556Z,5.56
2017-05-25T15:11:32.647Z,7.60
2017-05-25T15:14:01.787Z,8.00
2017-05-25T15:16:30.907Z,7.88
2017-05-25T15:19:00.056Z,7.90
2017-05-25T15:21:29.151Z,8.80
2017-05-25T15:23:58.300Z,8.38
2017-05-25T15:26:27.395Z,8.24
2017-05-25T15:28:56.558Z,8.10
2017-05-25T15:31:25.659Z,11.46
2017-05-25T15:33:54.820Z,10.80
2017-05-25T15:36:23.927Z,8.98
2017-05-25T15:38:53.088Z,8.12
2017-05-25T15:41:22.220Z,8.76
2017-05-25T15:43:50.546Z,7.92
2017-05-25T15:46:19.695Z,8.54
2017-05-25T15:48:48.790Z,6.78
2017-05-25T15:51:17.935Z,7.98
2017-05-25T15:53:47.035Z,6.36
2017-05-25T15:56:16.159Z,7.96
2017-05-25T15:58:45.266Z,8.22
2017-05-25T16:01:14.423Z,8.64
2017-05-25T16:03:43.515Z,8.22
2017-05-25T16:06:12.666Z,9.48
2017-05-25T16:08:41.774Z,10.46
2017-05-25T16:11:10.968Z,8.04
2017-05-25T16:13:40.103Z,13.02
2017-05-25T16:16:09.279Z,7.96
2017-05-25T16:18:38.431Z,8.42
2017-05-25T16:21:07.527Z,7.78
2017-05-25T16:23:36.666Z,6.12
2017-05-25T16:26:05.892Z,4.44
2017-05-25T16:28:35.026Z,5.80
2017-05-25T16:31:04.164Z,5.36
2017-05-25T16:33:33.263Z,4.92
2017-05-25T16:36:02.404Z,4.78
2017-05-25T16:38:31.534Z,6.54
2017-05-25T16:41:01.667Z,12.68
2017-05-25T16:43:30.774Z,9.74
2017-05-25T16:46:00.174Z,8.08
2017-05-25T16:48:29.267Z,7.50
2017-05-25T16:50:58.437Z,8.50
2017-05-25T16:53:27.543Z,10.10
2017-05-25T16:55:56.687Z,9.14
2017-05-25T16:58:25.778Z,7.84
2017-05-25T17:00:54.938Z,7.64
2017-05-25T17:03:24.075Z,6.30
2017-05-25T17:05:53.387Z,6.12
2017-05-25T17:08:22.490Z,6.74
2017-05-25T17:10:51.624Z,6.78
2017-05-25T17:13:20.719Z,6.32
2017-05-25T17:15:49.883Z,6.80
2017-05-25T17:18:19.007Z,5.68
2017-05-25T17:20:48.207Z,5.30
2017-05-25T17:23:17.316Z,6.48
2017-05-25T17:25:46.727Z,5.30
2017-05-25T17:28:15.892Z,3.84
2017-05-25T17:30:44.999Z,4.98
2017-05-25T17:33:14.145Z,4.16
2017-05-25T17:35:43.299Z,5.04
2017-05-25T17:38:12.436Z,4.70
2017-05-25T17:40:41.567Z,4.12
2017-05-25T17:43:10.737Z,4.10
2017-05-25T17:45:39.830Z,5.80
2017-05-25T17:48:09.006Z,5.64
2017-05-25T17:50:38.106Z,5.54
2017-05-25T17:53:07.274Z,4.74
2017-05-25T17:55:36.391Z,5.22
2017-05-25T17:58:05.525Z,5.70
2017-05-25T18:00:34.621Z,4.88
2017-05-25T18:03:03.841Z,4.42
2017-05-25T18:05:32.932Z,5.78
2017-05-25T18:08:02.106Z,4.80
2017-05-25T18:10:31.209Z,4.26
2017-05-25T18:13:00.351Z,4.20
2017-05-25T18:15:29.458Z,3.76
2017-05-25T18:17:58.579Z,5.84
2017-05-25T18:20:27.704Z,4.76
2017-05-25T18:22:56.839Z,5.70
2017-05-25T18:25:25.974Z,6.04
2017-05-25T18:27:55.075Z,6.14
2017-05-25T18:30:24.223Z,4.24
2017-05-25T18:32:53.333Z,4.68
2017-05-25T18:35:22.454Z,4.70
2017-05-25T18:37:51.617Z,3.62
2017-05-25T18:40:20.838Z,4.04
2017-05-25T18:42:49.994Z,3.90
2017-05-25T18:45:19.083Z,4.08
2017-05-25T18:47:48.257Z,5.04
2017-05-25T18:50:17.371Z,5.68
2017-05-25T18:52:46.557Z,5.14
2017-05-25T18:55:15.691Z,4.70
2017-05-25T18:57:44.903Z,4.72
2017-05-25T19:00:13.231Z,6.20
2017-05-25T19:02:42.467Z,4.86
2017-05-25T19:05:11.605Z,5.76
2017-05-25T19:07:40.744Z,5.72
2017-05-25T19:10:09.887Z,5.10
2017-05-25T19:12:39.008Z,3.92
2017-05-25T19:15:08.128Z,4.78
2017-05-25T19:17:37.256Z,4.16
2017-05-25T19:22:40.328Z,4.40
2017-05-25T19:25:09.410Z,3.88
2017-05-25T19:27:38.542Z,4.92
2017-05-25T19:30:07.608Z,4.60
2017-05-25T19:32:36.763Z,5.42
2017-05-25T19:35:05.858Z,5.36
2017-05-25T19:37:34.983Z,7.18
2017-05-25T19:40:04.067Z,4.58
2017-05-25T19:42:34.001Z,5.22
2017-05-25T19:45:03.051Z,5.14
2017-05-25T19:47:32.151Z,6.78
2017-05-25T19:50:01.464Z,5.56
2017-05-25T19:52:30.571Z,5.38
2017-05-25T19:54:59.731Z,5.40
2017-05-25T19:57:28.852Z,5.84
2017-05-25T19:59:57.982Z,5.76
2017-05-25T20:02:27.380Z,6.86
2017-05-25T20:04:56.472Z,5.10
2017-05-25T20:07:25.556Z,5.64
2017-05-25T20:09:54.658Z,6.26
2017-05-25T20:12:23.764Z,5.48
2017-05-25T20:14:52.922Z,5.90
2017-05-25T20:17:22.011Z,7.06
2017-05-25T20:19:51.244Z,6.00
2017-05-25T20:22:20.341Z,6.02
2017-05-25T20:24:49.458Z,5.94
2017-05-25T20:27:18.660Z,5.10
2017-05-25T20:29:48.523Z,5.96
2017-05-25T20:32:17.639Z,4.66
2017-05-25T20:34:46.754Z,5.44
2017-05-25T20:37:15.852Z,5.60
2017-05-25T20:39:45.920Z,5.78
2017-05-25T20:42:15.020Z,5.46
2017-05-25T20:44:44.237Z,5.64
2017-05-25T20:47:13.607Z,5.40
2017-05-25T20:49:42.688Z,5.04
2017-05-25T20:52:11.790Z,5.94
2017-05-25T20:54:40.874Z,7.12
2017-05-25T20:57:09.951Z,7.28
2017-05-25T20:59:39.172Z,7.26
2017-05-25T21:02:08.242Z,7.10
2017-05-25T21:04:37.334Z,5.10
2017-05-25T21:07:06.775Z,5.88
2017-05-25T21:09:35.880Z,6.38
2017-05-25T21:12:04.985Z,6.82
2017-05-25T21:14:34.273Z,6.78
2017-05-25T21:17:03.382Z,7.66
2017-05-25T21:19:32.535Z,7.06
2017-05-25T21:22:01.964Z,7.70
2017-05-25T21:24:31.163Z,6.00
2017-05-25T21:27:00.267Z,7.58
2017-05-25T21:29:29.467Z,6.48
2017-05-25T21:31:58.559Z,6.16
2017-05-25T21:34:27.636Z,6.60
2017-05-25T21:36:56.739Z,6.90
2017-05-25T21:39:25.817Z,5.90
2017-05-25T21:41:55.005Z,7.26
2017-05-25T21:44:24.079Z,6.60
2017-05-25T21:46:53.168Z,6.80
2017-05-25T21:49:22.288Z,7.28
2017-05-25T21:51:51.378Z,7.90
2017-05-25T21:54:20.603Z,7.20
2017-05-25T21:56:48.883Z,6.72
2017-05-25T21:59:17.981Z,8.00
2017-05-25T22:01:47.207Z,6.34
2017-05-25T22:04:16.307Z,8.68
2017-05-25T22:06:45.396Z,8.48
2017-05-25T22:09:14.762Z,8.78
2017-05-25T22:11:43.880Z,8.50
2017-05-25T22:14:12.971Z,6.76
2017-05-25T22:16:42.088Z,6.62
2017-05-25T22:19:11.167Z,7.34
2017-05-25T22:21:40.390Z,7.56
2017-05-25T22:24:09.463Z,7.70
2017-05-25T22:26:38.566Z,6.68
2017-05-25T22:29:07.751Z,7.06
2017-05-25T22:31:36.829Z,6.74
2017-05-25T22:34:05.922Z,7.70
2017-05-25T22:36:35.143Z,6.40
2017-05-25T22:39:03.447Z,7.04
2017-05-25T22:41:32.511Z,7.26
2017-05-25T22:44:01.983Z,8.62
2017-05-25T22:46:31.059Z,7.00
2017-05-25T22:48:59.365Z,8.20
2017-05-25T22:51:28.454Z,8.50
2017-05-25T22:53:57.526Z,7.82
2017-05-25T22:56:26.623Z,8.28
2017-05-25T22:58:55.699Z,8.56
2017-05-25T23:01:24.903Z,8.08
2017-05-25T23:03:53.959Z,7.72
2017-05-25T23:06:23.051Z,9.20
2017-05-25T23:08:52.522Z,8.12
2017-05-25T23:11:21.594Z,9.40
2017-05-25T23:13:50.668Z,7.96
2017-05-25T23:16:19.755Z,8.28
2017-05-25T23:18:48.830Z,7.44
2017-05-25T23:21:18.039Z,7.82
2017-05-25T23:23:47.107Z,8.34
2017-05-25T23:26:16.166Z,8.04
2017-05-25T23:28:45.364Z,9.68
2017-05-25T23:31:14.441Z,7.94
2017-05-25T23:33:43.506Z,8.60
2017-05-25T23:36:12.986Z,7.64
2017-05-25T23:38:42.050Z,8.52
2017-05-25T23:41:11.129Z,8.00
2017-05-25T23:43:40.466Z,8.18
2017-05-25T23:46:09.532Z,8.16
2017-05-25T23:48:38.615Z,8.66
2017-05-25T23:51:07.720Z,9.48
2017-05-25T23:53:36.787Z,7.90
2017-05-25T23:56:05.873Z,8.30
2017-05-25T23:58:34.938Z,9.36
